createdAt,value
2022-10-10T00:01:33.460Z,102013.28
2022-10-10T00:04:01.082Z,102007.19
2022-10-10T00:06:32.679Z,102009.81
2022-10-10T00:09:00.727Z,102004.53
2022-10-10T00:11:27.704Z,102004.59
2022-10-10T00:13:54.600Z,101998.47
2022-10-10T00:16:21.512Z,101994.13
2022-10-10T00:18:48.833Z,101998.31
2022-10-10T00:21:15.774Z,101986.03
2022-10-10T00:23:42.653Z,101967.53
2022-10-10T00:26:12.706Z,101973.50
2022-10-10T00:28:43.152Z,101977.91
2022-10-10T00:31:10.478Z,101968.31
2022-10-10T00:33:37.946Z,101968.31
2022-10-10T00:36:06.428Z,101963.06
2022-10-10T00:38:33.463Z,101954.28
2022-10-10T00:41:00.877Z,101961.31
2022-10-10T00:43:29.588Z,101953.50
2022-10-10T00:45:56.835Z,101950.03
2022-10-10T00:48:41.343Z,101938.63
2022-10-10T00:51:18.886Z,101946.53
2022-10-10T00:53:55.192Z,101943.03
2022-10-10T00:56:26.667Z,101933.44
2022-10-10T00:58:56.960Z,101936.84
2022-10-10T01:01:23.982Z,101933.44
2022-10-10T01:03:50.943Z,101935.13
2022-10-10T01:06:17.830Z,101929.91
2022-10-10T01:08:44.816Z,101920.38
2022-10-10T01:11:37.753Z,101918.56
2022-10-10T01:14:55.940Z,101915.91
2022-10-10T01:17:40.265Z,101909.81
2022-10-10T01:20:38.839Z,101906.31
2022-10-10T01:23:36.374Z,101904.63
2022-10-10T01:26:49.675Z,101885.59
2022-10-10T01:29:33.521Z,101879.50
2022-10-10T01:32:31.188Z,101879.47
2022-10-10T01:35:54.560Z,101878.72
2022-10-10T01:38:42.140Z,101872.75
2022-10-10T01:41:15.836Z,101864.19
2022-10-10T01:43:42.954Z,101859.97
2022-10-10T01:46:18.881Z,101864.41
2022-10-10T01:48:50.214Z,101863.66
2022-10-10T01:51:51.242Z,101853.34
2022-10-10T01:54:42.213Z,101848.28
2022-10-10T01:57:31.722Z,101847.50
2022-10-10T02:00:14.612Z,101848.47
2022-10-10T02:03:14.246Z,101848.56
2022-10-10T02:06:03.025Z,101847.78
2022-10-10T02:08:54.299Z,101846.19
2022-10-10T02:11:21.600Z,101841.06
2022-10-10T02:13:56.912Z,101832.50
2022-10-10T02:16:35.768Z,101829.13
2022-10-10T02:19:06.840Z,101826.69
2022-10-10T02:21:34.578Z,101826.78
2022-10-10T02:24:07.024Z,101820.75
2022-10-10T02:26:35.149Z,101819.16
2022-10-10T02:29:12.872Z,101815.75
2022-10-10T02:32:02.332Z,101814.94
2022-10-10T02:34:36.062Z,101818.47
2022-10-10T02:37:12.562Z,101801.09
2022-10-10T02:39:52.190Z,101803.69
2022-10-10T02:42:22.676Z,101802.06
2022-10-10T02:44:50.480Z,101791.69
2022-10-10T02:47:17.543Z,101802.13
2022-10-10T02:49:44.556Z,101800.41
2022-10-10T02:52:15.145Z,101806.53
2022-10-10T02:54:42.514Z,101794.41
2022-10-10T02:57:09.495Z,101790.13
2022-10-10T02:59:36.400Z,101789.31
2022-10-10T03:02:03.339Z,101787.66
2022-10-10T03:04:30.231Z,101792.03
2022-10-10T03:06:57.091Z,101786.84
2022-10-10T03:09:23.977Z,101786.88
2022-10-10T03:11:50.855Z,101787.75
2022-10-10T03:14:17.737Z,101782.56
2022-10-10T03:16:44.632Z,101772.22
2022-10-10T03:19:11.503Z,101773.97
2022-10-10T03:21:38.430Z,101772.28
2022-10-10T03:24:05.794Z,101771.41
2022-10-10T03:26:33.110Z,101769.66
2022-10-10T03:29:02.759Z,101763.59
2022-10-10T03:31:30.124Z,101754.06
2022-10-10T03:33:56.997Z,101757.53
2022-10-10T03:36:23.905Z,101740.94
2022-10-10T03:38:51.818Z,101756.63
2022-10-10T03:41:18.687Z,101755.75
2022-10-10T03:43:45.548Z,101757.47
2022-10-10T03:46:15.990Z,101752.22
2022-10-10T03:48:43.761Z,101745.16
2022-10-10T03:51:10.732Z,101751.28
2022-10-10T03:53:37.627Z,101746.84
2022-10-10T03:56:05.596Z,101741.63
2022-10-10T03:58:32.500Z,101751.09
2022-10-10T04:01:02.516Z,101746.66
2022-10-10T04:03:29.995Z,101747.47
2022-10-10T04:05:57.158Z,101739.59
2022-10-10T04:08:24.344Z,101736.97
2022-10-10T04:10:53.907Z,101731.69
2022-10-10T04:13:25.772Z,101729.06
2022-10-10T04:15:54.779Z,101722.88
2022-10-10T04:18:22.435Z,101721.97
2022-10-10T04:20:49.352Z,101722.75
2022-10-10T04:23:16.467Z,101714.91
2022-10-10T04:25:44.422Z,101710.50
2022-10-10T04:28:13.282Z,101698.94
2022-10-10T04:30:40.629Z,101704.25
2022-10-10T04:33:07.777Z,101706.81
2022-10-10T04:35:35.933Z,101705.06
2022-10-10T04:38:04.585Z,101696.34
2022-10-10T04:40:31.757Z,101693.72
2022-10-10T04:42:58.976Z,101675.41
2022-10-10T04:45:26.653Z,101682.47
2022-10-10T04:47:54.789Z,101680.72
2022-10-10T04:50:22.830Z,101679.00
2022-10-10T04:52:50.016Z,101674.69
2022-10-10T04:55:17.180Z,101673.84
2022-10-10T04:57:44.244Z,101660.69
2022-10-10T05:00:12.064Z,101671.31
2022-10-10T05:02:39.107Z,101667.88
2022-10-10T05:05:06.865Z,101660.94
2022-10-10T05:07:33.741Z,101653.06
2022-10-10T05:10:00.713Z,101660.13
2022-10-10T05:12:27.599Z,101648.00
2022-10-10T05:14:54.489Z,101648.88
2022-10-10T05:17:21.363Z,101645.41
2022-10-10T05:19:48.298Z,101646.16
2022-10-10T05:22:15.208Z,101631.53
2022-10-10T05:24:42.138Z,101629.88
2022-10-10T05:27:09.043Z,101615.06
2022-10-10T05:29:35.915Z,101615.06
2022-10-10T05:32:06.484Z,101609.84
2022-10-10T05:34:36.140Z,101605.47
2022-10-10T05:37:03.073Z,101599.47
2022-10-10T05:39:30.025Z,101596.81
2022-10-10T05:41:56.907Z,101598.59
2022-10-10T05:44:23.861Z,101591.66
2022-10-10T05:46:50.714Z,101587.34
2022-10-10T05:49:17.677Z,101592.53
2022-10-10T05:51:44.646Z,101590.91
2022-10-10T05:54:11.574Z,101587.47
2022-10-10T05:56:38.489Z,101586.63
2022-10-10T05:59:05.558Z,101589.28
2022-10-10T06:01:32.687Z,101582.34
2022-10-10T06:03:59.615Z,101589.34
2022-10-10T06:06:26.751Z,101582.44
2022-10-10T06:08:53.654Z,101590.31
2022-10-10T06:11:22.739Z,101582.56
2022-10-10T06:13:54.006Z,101576.50
2022-10-10T06:16:27.801Z,101586.09
2022-10-10T06:18:57.041Z,101591.34
2022-10-10T06:21:24.911Z,101595.75
2022-10-10T06:23:52.040Z,101591.50
2022-10-10T06:26:19.022Z,101581.88
2022-10-10T06:28:46.416Z,101595.97
2022-10-10T06:31:15.473Z,101591.66
2022-10-10T06:33:45.387Z,101599.59
2022-10-10T06:36:13.682Z,101597.03
2022-10-10T06:38:43.516Z,101588.41
2022-10-10T06:41:10.909Z,101585.00
2022-10-10T06:43:37.848Z,101589.44
2022-10-10T06:46:05.379Z,101588.69
2022-10-10T06:48:34.804Z,101581.84
2022-10-10T06:51:08.896Z,101587.16
2022-10-10T06:53:35.893Z,101588.13
2022-10-10T06:56:03.829Z,101582.91
2022-10-10T06:58:31.643Z,101579.59
2022-10-10T07:01:02.231Z,101578.00
2022-10-10T07:03:30.578Z,101576.31
2022-10-10T07:06:00.836Z,101578.19
2022-10-10T07:08:28.445Z,101570.44
2022-10-10T07:10:55.819Z,101579.25
2022-10-10T07:13:23.652Z,101573.25
2022-10-10T07:15:50.516Z,101572.47
2022-10-10T07:18:18.870Z,101575.19
2022-10-10T07:20:45.911Z,101563.78
2022-10-10T07:23:13.306Z,101574.41
2022-10-10T07:25:42.200Z,101576.13
2022-10-10T07:28:09.878Z,101568.28
2022-10-10T07:30:46.197Z,101581.47
2022-10-10T07:33:14.788Z,101572.78
2022-10-10T07:35:42.384Z,101580.78
2022-10-10T07:38:11.607Z,101577.34
2022-10-10T07:40:41.466Z,101569.53
2022-10-10T07:43:08.418Z,101570.50
2022-10-10T07:45:37.160Z,101567.09
2022-10-10T07:48:04.649Z,101561.91
2022-10-10T07:50:31.572Z,101557.56
2022-10-10T07:52:58.520Z,101559.41
2022-10-10T07:55:25.449Z,101555.16
2022-10-10T07:57:53.621Z,101551.78
2022-10-10T08:00:20.890Z,101551.88
2022-10-10T08:02:47.797Z,101549.34
2022-10-10T08:05:14.713Z,101541.63
2022-10-10T08:07:41.580Z,101539.13
2022-10-10T08:10:09.908Z,101528.81
2022-10-10T08:12:36.999Z,101528.91
2022-10-10T08:15:06.185Z,101518.59
2022-10-10T08:17:33.718Z,101518.72
2022-10-10T08:20:00.630Z,101517.97
2022-10-10T08:22:27.524Z,101511.22
2022-10-10T08:24:54.413Z,101507.84
2022-10-10T08:27:21.337Z,101516.69
2022-10-10T08:29:48.499Z,101509.91
2022-10-10T08:32:15.381Z,101504.81
2022-10-10T08:34:42.294Z,101503.22
2022-10-10T08:37:09.168Z,101499.78
2022-10-10T08:39:36.074Z,101494.66
2022-10-10T08:42:03.819Z,101495.59
2022-10-10T08:44:46.224Z,101474.75
2022-10-10T08:47:38.820Z,101470.47
2022-10-10T08:50:15.892Z,101470.53
2022-10-10T08:52:53.650Z,101456.59
2022-10-10T08:55:33.707Z,101451.41
2022-10-10T08:58:17.274Z,101453.19
2022-10-10T09:00:51.839Z,101451.47
2022-10-10T09:03:35.727Z,101461.06
2022-10-10T09:06:34.862Z,101454.97
2022-10-10T09:09:28.641Z,101455.00
2022-10-10T09:12:22.313Z,101448.88
2022-10-10T09:15:16.927Z,101443.63
2022-10-10T09:18:03.279Z,101446.25
2022-10-10T09:20:45.735Z,101444.53
2022-10-10T09:23:41.471Z,101437.56
2022-10-10T09:26:19.766Z,101435.81
2022-10-10T09:28:53.020Z,101435.81
2022-10-10T09:31:28.462Z,101427.94
2022-10-10T09:34:14.669Z,101423.56
2022-10-10T09:36:42.417Z,101418.31
2022-10-10T09:39:33.381Z,101414.81
2022-10-10T09:42:04.476Z,101401.72
2022-10-10T09:44:32.606Z,101399.94
2022-10-10T09:47:00.496Z,101395.53
2022-10-10T09:49:27.479Z,101391.16
2022-10-10T09:51:54.448Z,101381.53
2022-10-10T09:54:22.432Z,101374.53
2022-10-10T09:56:55.171Z,101369.25
2022-10-10T09:59:45.346Z,101369.22
2022-10-10T10:02:24.341Z,101382.34
2022-10-10T10:04:54.911Z,101370.06
2022-10-10T10:07:34.027Z,101371.81
2022-10-10T10:10:12.115Z,101378.81
2022-10-10T10:12:42.919Z,101370.91
2022-10-10T10:15:31.620Z,101381.38
2022-10-10T10:18:16.804Z,101367.31
2022-10-10T10:20:47.359Z,101370.75
2022-10-10T10:23:51.502Z,101370.69
2022-10-10T10:26:41.216Z,101366.22
2022-10-10T10:29:34.184Z,101362.63
2022-10-10T10:32:45.463Z,101359.06
2022-10-10T10:35:27.002Z,101359.88
2022-10-10T10:38:26.914Z,101359.78
2022-10-10T10:41:33.849Z,101353.59
2022-10-10T10:44:36.371Z,101354.34
2022-10-10T10:47:33.121Z,101353.41
2022-10-10T10:50:20.956Z,101350.66
2022-10-10T10:53:24.825Z,101343.53
2022-10-10T10:56:41.694Z,101346.97
2022-10-10T11:00:22.001Z,101330.25
2022-10-10T11:05:17.735Z,101324.94
2022-10-10T11:07:18.821Z,101324.88
2022-10-10T11:09:55.517Z,101329.22
2022-10-10T11:12:58.441Z,101326.56
2022-10-10T11:16:06.118Z,101316.91
2022-10-10T11:18:33.446Z,101315.13
2022-10-10T11:21:27.874Z,101321.25
2022-10-10T11:24:05.142Z,101318.56
2022-10-10T11:26:39.473Z,101314.13
2022-10-10T11:29:19.149Z,101314.09
2022-10-10T11:31:55.454Z,101311.44
2022-10-10T11:34:40.792Z,101316.66
2022-10-10T11:37:17.667Z,101303.44
2022-10-10T11:39:57.001Z,101285.88
2022-10-10T11:42:27.428Z,101299.00
2022-10-10T11:45:06.651Z,101280.63
2022-10-10T11:47:56.644Z,101296.28
2022-10-10T11:50:29.664Z,101298.75
2022-10-10T11:53:12.480Z,101292.50
2022-10-10T11:55:56.219Z,101299.31
2022-10-10T11:58:44.156Z,101294.84
2022-10-10T12:01:30.054Z,101288.63
2022-10-10T12:04:00.020Z,101286.00
2022-10-10T12:06:44.813Z,101282.31
2022-10-10T12:09:29.146Z,101278.63
2022-10-10T12:12:13.792Z,101275.84
2022-10-10T12:14:46.742Z,101273.94
2022-10-10T12:17:42.129Z,101260.63
2022-10-10T12:20:35.992Z,101268.31
2022-10-10T12:23:14.684Z,101260.38
2022-10-10T12:25:46.117Z,101251.53
2022-10-10T12:28:13.081Z,101260.19
2022-10-10T12:30:58.208Z,101260.16
2022-10-10T12:33:31.775Z,101250.44
2022-10-10T12:36:18.731Z,101252.09
2022-10-10T12:39:06.418Z,101260.69
2022-10-10T12:41:47.209Z,101254.34
2022-10-10T12:44:45.062Z,101240.13
2022-10-10T12:47:14.705Z,101238.16
2022-10-10T12:50:00.585Z,101249.47
2022-10-10T12:52:44.813Z,101241.50
2022-10-10T12:55:34.916Z,101234.44
2022-10-10T12:58:12.168Z,101236.13
2022-10-10T13:00:46.268Z,101239.50
2022-10-10T13:03:36.570Z,101236.78
2022-10-10T13:06:40.914Z,101237.56
2022-10-10T13:09:35.495Z,101238.41
2022-10-10T13:12:06.490Z,101255.94
2022-10-10T13:14:44.533Z,101226.88
2022-10-10T13:17:31.430Z,101232.13
2022-10-10T13:20:01.111Z,101225.00
2022-10-10T13:22:33.392Z,101217.84
2022-10-10T13:25:01.153Z,101216.78
2022-10-10T13:27:32.295Z,101219.44
2022-10-10T13:29:59.671Z,101218.44
2022-10-10T13:32:29.933Z,101217.50
2022-10-10T13:35:00.985Z,101222.00
2022-10-10T13:37:29.186Z,101220.22
2022-10-10T13:39:56.440Z,101221.06
2022-10-10T13:42:39.296Z,101216.75
2022-10-10T13:45:44.355Z,101218.56
2022-10-10T13:48:35.435Z,101216.06
2022-10-10T13:51:14.661Z,101215.28
2022-10-10T13:53:53.984Z,101218.06
2022-10-10T13:56:34.416Z,101214.66
2022-10-10T13:59:01.174Z,101220.03
2022-10-10T14:01:32.538Z,101213.13
2022-10-10T14:04:36.092Z,101207.06
2022-10-10T14:07:12.086Z,101201.88
2022-10-10T14:09:43.623Z,101197.47
2022-10-10T14:12:24.493Z,101196.59
2022-10-10T14:14:53.940Z,101209.72
2022-10-10T14:17:21.686Z,101210.66
2022-10-10T14:19:49.839Z,101217.72
2022-10-10T14:22:17.429Z,101212.44
2022-10-10T14:24:44.581Z,101212.44
2022-10-10T14:27:26.082Z,101218.63
2022-10-10T14:29:55.746Z,101213.38
2022-10-10T14:32:23.077Z,101214.25
2022-10-10T14:34:49.979Z,101210.66
2022-10-10T14:37:22.588Z,101202.69
2022-10-10T14:39:49.791Z,101192.13
2022-10-10T14:42:18.912Z,101193.78
2022-10-10T14:44:46.294Z,101194.72
2022-10-10T14:47:19.589Z,101196.47
2022-10-10T14:49:46.957Z,101184.19
2022-10-10T14:52:14.795Z,101188.63
2022-10-10T14:54:41.764Z,101191.34
2022-10-10T14:57:10.852Z,101176.50
2022-10-10T14:59:47.709Z,101176.50
2022-10-10T15:02:21.022Z,101176.59
2022-10-10T15:04:48.486Z,101179.25
2022-10-10T15:07:15.753Z,101176.66
2022-10-10T15:10:17.619Z,101163.59
2022-10-10T15:12:33.356Z,101175.09
2022-10-10T15:15:00.242Z,101186.59
2022-10-10T15:17:27.275Z,101175.19
2022-10-10T15:19:54.175Z,101184.09
2022-10-10T15:22:21.042Z,101184.13
2022-10-10T15:24:47.904Z,101183.25
2022-10-10T15:27:14.856Z,101181.56
2022-10-10T15:29:41.723Z,101184.28
2022-10-10T15:32:08.657Z,101179.09
2022-10-10T15:34:36.136Z,101173.13
2022-10-10T15:37:03.472Z,101171.44
2022-10-10T15:39:31.236Z,101182.81
2022-10-10T15:42:01.329Z,101183.75
2022-10-10T15:44:33.979Z,101177.72
2022-10-10T15:47:00.848Z,101185.66
2022-10-10T15:49:27.743Z,101186.63
2022-10-10T15:51:54.627Z,101193.72
2022-10-10T15:54:21.546Z,101192.91
2022-10-10T15:56:48.429Z,101190.38
2022-10-10T15:59:15.411Z,101190.50
2022-10-10T16:01:42.276Z,101186.97
2022-10-10T16:04:09.169Z,101191.44
2022-10-10T16:06:36.046Z,101181.91
2022-10-10T16:09:26.823Z,101187.09
2022-10-10T16:11:49.935Z,101187.22
2022-10-10T16:14:16.833Z,101189.00
2022-10-10T16:16:43.717Z,101187.31
2022-10-10T16:19:10.603Z,101190.09
2022-10-10T16:21:37.496Z,101183.25
2022-10-10T16:24:04.456Z,101198.16
2022-10-10T16:26:34.551Z,101204.41
2022-10-10T16:29:02.021Z,101202.75
2022-10-10T16:31:29.243Z,101205.47
2022-10-10T16:33:58.384Z,101205.59
2022-10-10T16:36:31.392Z,101205.78
2022-10-10T16:38:59.572Z,101208.44
2022-10-10T16:41:47.097Z,101212.91
2022-10-10T16:44:15.501Z,101216.56
2022-10-10T16:46:42.501Z,101223.69
2022-10-10T16:49:11.997Z,101229.84
2022-10-10T16:51:39.117Z,101225.53
2022-10-10T16:54:06.396Z,101237.84
2022-10-10T16:56:34.118Z,101233.53
2022-10-10T16:59:01.759Z,101230.97
2022-10-10T17:01:29.188Z,101238.00
2022-10-10T17:03:59.554Z,101230.22
2022-10-10T17:06:30.176Z,101236.41
2022-10-10T17:09:02.504Z,101231.19
2022-10-10T17:11:29.447Z,101229.50
2022-10-10T17:13:56.359Z,101234.78
2022-10-10T17:19:13.485Z,101240.19
2022-10-10T17:21:40.519Z,101243.69
2022-10-10T17:24:07.450Z,101239.34
2022-10-10T17:26:34.344Z,101233.22
2022-10-10T17:29:01.218Z,101239.34
2022-10-10T17:31:28.402Z,101237.63
2022-10-10T17:33:57.459Z,101236.75
2022-10-10T17:36:28.169Z,101229.81
2022-10-10T17:39:01.855Z,101234.22
2022-10-10T17:41:30.067Z,101235.09
2022-10-10T17:43:57.159Z,101243.03
2022-10-10T17:46:34.702Z,101243.06
2022-10-10T17:49:06.716Z,101236.94
2022-10-10T17:51:35.461Z,101239.63
2022-10-10T17:54:03.453Z,101241.44
2022-10-10T17:56:30.485Z,101227.47
2022-10-10T17:58:59.309Z,101233.59
2022-10-10T18:01:26.499Z,101237.19
2022-10-10T18:03:53.495Z,101232.88
2022-10-10T18:06:22.345Z,101244.28
2022-10-10T18:08:53.906Z,101245.19
2022-10-10T18:11:27.652Z,101253.09
2022-10-10T18:13:59.976Z,101232.22
2022-10-10T18:16:32.359Z,101248.84
2022-10-10T18:18:59.699Z,101248.00
2022-10-10T18:21:27.162Z,101250.66
2022-10-10T18:23:54.530Z,101251.56
2022-10-10T18:26:25.457Z,101241.97
2022-10-10T18:28:54.181Z,101239.41
2022-10-10T18:31:28.314Z,101242.91
2022-10-10T18:33:56.124Z,101249.03
2022-10-10T18:36:29.937Z,101249.06
2022-10-10T18:39:02.346Z,101246.50
2022-10-10T18:41:34.051Z,101246.50
2022-10-10T18:44:04.941Z,101250.03
2022-10-10T18:46:32.543Z,101248.31
2022-10-10T18:49:00.896Z,101250.06
2022-10-10T18:51:29.651Z,101250.06
2022-10-10T18:54:02.066Z,101259.69
2022-10-10T18:56:32.183Z,101252.75
2022-10-10T18:59:03.383Z,101247.53
2022-10-10T19:01:35.095Z,101250.13
2022-10-10T19:04:04.318Z,101249.25
2022-10-10T19:06:31.474Z,101254.50
2022-10-10T19:09:00.322Z,101259.75
2022-10-10T19:11:30.864Z,101256.25
2022-10-10T19:14:04.414Z,101248.38
2022-10-10T19:16:31.726Z,101257.06
2022-10-10T19:19:00.137Z,101250.06
2022-10-10T19:21:29.939Z,101246.53
2022-10-10T19:23:58.636Z,101250.03
2022-10-10T19:26:25.630Z,101260.50
2022-10-10T19:28:52.584Z,101253.50
2022-10-10T19:31:20.558Z,101254.31
2022-10-10T19:33:52.227Z,101257.81
2022-10-10T19:36:19.406Z,101263.06
2022-10-10T19:38:46.541Z,101257.78
2022-10-10T19:41:14.723Z,101264.78
2022-10-10T19:43:44.093Z,101258.63
2022-10-10T19:46:14.839Z,101260.34
2022-10-10T19:48:42.324Z,101262.06
2022-10-10T19:51:13.350Z,101262.94
2022-10-10T19:53:42.424Z,101280.41
2022-10-10T19:56:16.105Z,101278.66
2022-10-10T19:58:43.650Z,101286.50
2022-10-10T20:01:14.694Z,101283.91
2022-10-10T20:03:42.592Z,101284.78
2022-10-10T20:06:09.959Z,101285.69
2022-10-10T20:08:36.901Z,101288.31
2022-10-10T20:11:04.764Z,101292.69
2022-10-10T20:13:32.080Z,101297.03
2022-10-10T20:16:01.311Z,101302.31
2022-10-10T20:18:28.409Z,101305.81
2022-10-10T20:20:55.550Z,101315.47
2022-10-10T20:23:24.661Z,101318.09
2022-10-10T20:25:52.481Z,101313.72
2022-10-10T20:28:20.705Z,101315.47
2022-10-10T20:30:50.519Z,101322.44
2022-10-10T20:33:19.713Z,101327.69
2022-10-10T20:35:49.300Z,101323.34
2022-10-10T20:38:19.205Z,101330.34
2022-10-10T20:40:46.084Z,101334.72
2022-10-10T20:43:14.729Z,101333.84
2022-10-10T20:45:41.775Z,101337.38
2022-10-10T20:48:09.735Z,101345.25
2022-10-10T20:50:38.052Z,101351.41
2022-10-10T20:53:06.604Z,101344.41
2022-10-10T20:55:33.798Z,101355.78
2022-10-10T20:58:00.840Z,101362.84
2022-10-10T21:00:27.745Z,101370.69
2022-10-10T21:02:56.287Z,101367.19
2022-10-10T21:05:23.239Z,101375.97
2022-10-10T21:07:50.097Z,101375.06
2022-10-10T21:10:17.045Z,101379.41
2022-10-10T21:12:43.982Z,101374.16
2022-10-10T21:15:11.068Z,101385.56
2022-10-10T21:17:37.961Z,101386.47
2022-10-10T21:20:05.803Z,101389.09
2022-10-10T21:22:32.723Z,101387.34
2022-10-10T21:24:59.636Z,101394.34
2022-10-10T21:27:26.579Z,101395.25
2022-10-10T21:29:53.459Z,101397.03
2022-10-10T21:32:20.319Z,101409.28
2022-10-10T21:34:47.211Z,101412.75
2022-10-10T21:37:14.269Z,101413.66
2022-10-10T21:39:41.169Z,101415.41
2022-10-10T21:42:08.050Z,101419.81
2022-10-10T21:44:35.124Z,101420.66
2022-10-10T21:47:01.979Z,101425.94
2022-10-10T21:49:28.860Z,101434.69
2022-10-10T21:51:55.735Z,101444.31
2022-10-10T21:54:22.611Z,101449.56
2022-10-10T21:56:49.524Z,101450.47
2022-10-10T21:59:16.413Z,101457.47
2022-10-10T22:01:44.404Z,101467.09
2022-10-10T22:04:11.490Z,101467.09
2022-10-10T22:06:38.665Z,101482.00
2022-10-10T22:09:05.627Z,101485.50
2022-10-10T22:11:34.454Z,101505.66
2022-10-10T22:14:04.451Z,101506.50
2022-10-10T22:16:33.433Z,101506.53
2022-10-10T22:19:00.953Z,101514.44
2022-10-10T22:21:31.704Z,101517.06
2022-10-10T22:24:01.865Z,101524.06
2022-10-10T22:26:30.028Z,101526.69
2022-10-10T22:28:57.277Z,101538.03
2022-10-10T22:31:24.289Z,101547.66
2022-10-10T22:33:51.252Z,101547.63
2022-10-10T22:36:18.200Z,101548.50
2022-10-10T22:38:45.618Z,101554.59
2022-10-10T22:41:12.932Z,101558.97
2022-10-10T22:43:39.846Z,101563.28
2022-10-10T22:46:07.592Z,101561.50
2022-10-10T22:48:34.970Z,101564.13
2022-10-10T22:51:06.599Z,101578.97
2022-10-10T22:53:33.546Z,101581.53
2022-10-10T22:56:00.652Z,101587.66
2022-10-10T22:58:27.876Z,101595.47
2022-10-10T23:00:54.819Z,101599.81
2022-10-10T23:03:21.757Z,101599.78
2022-10-10T23:05:48.674Z,101603.22
2022-10-10T23:08:15.574Z,101608.41
2022-10-10T23:10:42.647Z,101607.50
2022-10-10T23:13:09.537Z,101603.97
2022-10-10T23:15:36.416Z,101609.19
2022-10-10T23:18:03.289Z,101617.88
2022-10-10T23:20:30.177Z,101617.84
2022-10-10T23:22:57.080Z,101613.47
2022-10-10T23:25:24.054Z,101619.53
2022-10-10T23:27:51.320Z,101622.09
2022-10-10T23:30:18.312Z,101624.66
2022-10-10T23:32:45.370Z,101634.25
2022-10-10T23:35:13.589Z,101636.81
2022-10-10T23:37:41.612Z,101635.06
2022-10-10T23:40:09.159Z,101636.75
2022-10-10T23:42:36.041Z,101633.25
2022-10-10T23:45:03.959Z,101640.19
2022-10-10T23:47:30.846Z,101634.91
2022-10-10T23:49:57.783Z,101635.75
2022-10-10T23:52:24.656Z,101642.72
2022-10-10T23:54:51.536Z,101643.56
2022-10-10T23:57:18.472Z,101653.13
2022-10-10T23:59:45.348Z,101649.63
